Time;durP1;ratioP1;P1;durP2;ratioP2;P2;SDS_P1;SDS_P2;PMS_P1;PMS_P2;Temp;Humidity;BMP_temperature;BMP_pressure;BME280_temperature;BME280_humidity;BME280_pressure;Samples;Min_cycle;Max_cycle;Signal;HPM_P1;HPM_P2
2021/10/18 00:00:53;;;;;;;;;;;;;;;;;;2122695;28;20376;-55
2021/10/18 00:01:54;;;;;;;;;;;;;;;;;;2122654;28;20381;-55
2021/10/18 00:02:58;;;;;;;;;;;;;;;;;;2122835;28;19973;-55
2021/10/18 00:03:59;;;;;;;;;;;;;;;;;;2122716;28;19976;-55
2021/10/18 00:05:00;;;;;;;;;;;;;;;;;;2122752;28;20333;-55
2021/10/18 00:06:00;;;;;;;;;;;;;;;;;;2122570;28;19923;-55
2021/10/18 00:07:01;;;;;;;;;;;;;;;;;;2122631;28;19927;-55
2021/10/18 00:08:02;;;;;;;;;;;;;;;;;;2122740;28;20295;-55
2021/10/18 00:09:03;;;;;;;;;;;;;;;;;;2122678;28;20307;-55
2021/10/18 00:10:04;;;;;;;;;;;;;;;;;;2122702;28;19930;-55
2021/10/18 00:11:05;;;;;;;;;;;;;;;;;;2122639;27;19976;-56
2021/10/18 00:12:25;;;;;;;;;;;;;;;;;;2123087;27;19934;-55
2021/10/18 00:13:26;;;;;;;;;;;;;;;;;;2124215;28;20434;-55
2021/10/18 00:14:27;;;;;;;;;;;;;;;;;;2124071;28;20360;-55
2021/10/18 00:15:28;;;;;;;;;;;;;;;;;;2124152;28;19931;-55
2021/10/18 00:16:29;;;;;;;;;;;;;;;;;;2124138;28;20249;-55
2021/10/18 00:17:29;;;;;;;;;;;;;;;;;;2124386;28;20010;-55
2021/10/18 00:18:30;;;;;;;;;;;;;;;;;;2124286;28;20311;-55
2021/10/18 00:19:31;;;;;;;;;;;;;;;;;;2124252;28;19927;-56
2021/10/18 00:20:32;;;;;;;;;;;;;;;;;;2124079;27;19927;-55
2021/10/18 00:21:33;;;;;;;;;;;;;;;;;;2124278;27;19923;-55
2021/10/18 00:22:34;;;;;;;;;;;;;;;;;;2124160;28;19924;-55
2021/10/18 00:23:34;;;;;;;;;;;;;;;;;;2124172;28;19923;-55
2021/10/18 00:24:35;;;;;;;;;;;;;;;;;;2124177;28;19935;-55
2021/10/18 00:25:36;;;;;;;;;;;;;;;;;;2124097;28;20352;-54
2021/10/18 00:26:37;;;;;;;;;;;;;;;;;;2124141;28;20311;-55
2021/10/18 00:27:37;;;;;;;;;;;;;;;;;;2123973;28;19923;-55
2021/10/18 00:28:38;;;;;;;;;;;;;;;;;;2124185;28;19923;-55
2021/10/18 00:29:39;;;;;;;;;;;;;;;;;;2124057;28;20168;-55
2021/10/18 00:30:40;;;;;;;;;;;;;;;;;;2124069;28;20022;-55
2021/10/18 00:31:41;;;;;;;;;;;;;;;;;;2123955;28;19923;-55
2021/10/18 00:32:42;;;;;;;;;;;;;;;;;;2124126;28;19924;-55
2021/10/18 00:33:42;;;;;;;;;;;;;;;;;;2124087;28;19923;-55
2021/10/18 00:34:43;;;;;;;;;;;;;;;;;;2124246;28;19927;-54
2021/10/18 00:35:44;;;;;;;;;;;;;;;;;;2123886;28;20314;-55
2021/10/18 00:36:45;;;;;;;;;;;;;;;;;;2124108;28;19937;-54
2021/10/18 00:37:46;;;;;;;;;;;;;;;;;;2123975;28;19928;-55
2021/10/18 00:38:46;;;;;;;;;;;;;;;;;;2124187;28;19923;-55
2021/10/18 00:39:47;;;;;;;;;;;;;;;;;;2123886;28;19945;-55
2021/10/18 00:40:48;;;;;;;;;;;;;;;;;;2123981;28;20284;-54
2021/10/18 00:41:49;;;;;;;;;;;;;;;;;;2123816;28;20356;-54
2021/10/18 00:42:51;;;;;;;;;;;;;;;;;;2124139;28;19931;-55
2021/10/18 00:43:53;;;;;;;;;;;;;;;;;;2124171;28;19959;-55
2021/10/18 00:44:53;;;;;;;;;;;;;;;;;;2124206;27;20029;-55
2021/10/18 00:45:54;;;;;;;;;;;;;;;;;;2123861;28;19923;-55
2021/10/18 00:46:55;;;;;;;;;;;;;;;;;;2124294;28;19934;-55
2021/10/18 00:47:57;;;;;;;;;;;;;;;;;;2123977;28;19923;-54
2021/10/18 00:48:58;;;;;;;;;;;;;;;;;;2124153;27;20018;-55
2021/10/18 00:49:59;;;;;;;;;;;;;;;;;;2124095;27;19929;-55
2021/10/18 00:51:00;;;;;;;;;;;;;;;;;;2123990;28;19923;-55
2021/10/18 00:52:00;;;;;;;;;;;;;;;;;;2123843;28;19980;-55
2021/10/18 00:53:01;;;;;;;;;;;;;;;;;;2123914;28;19931;-55
2021/10/18 00:54:02;;;;;;;;;;;;;;;;;;2123790;28;19946;-55
2021/10/18 00:55:03;;;;;;;;;;;;;;;;;;2124023;28;19923;-54
2021/10/18 00:56:04;;;;;;;;;;;;;;;;;;2123815;28;19923;-55
2021/10/18 00:57:04;;;;;;;;;;;;;;;;;;2124170;28;20184;-54
2021/10/18 00:58:05;;;;;;;;;;;;;;;;;;2123803;28;19928;-54
2021/10/18 00:59:06;;;;;;;;;;;;;;;;;;2123808;28;19968;-55
2021/10/18 01:00:07;;;;;;;;;;;;;;;;;;2124009;28;20376;-55
2021/10/18 01:01:07;;;;;;;;;;;;;;;;;;2123882;28;19924;-54
2021/10/18 01:02:09;;;;;;;;;;;;;;;;;;2123856;28;19923;-55
2021/10/18 01:03:10;;;;;;;;;;;;;;;;;;2123895;28;20021;-55
2021/10/18 01:04:10;;;;;;;;;;;;;;;;;;2123839;28;19923;-55
2021/10/18 01:05:12;;;;;;;;;;;;;;;;;;2123753;28;19924;-55
2021/10/18 01:06:13;;;;;;;;;;;;;;;;;;2123930;28;20041;-55
2021/10/18 01:07:14;;;;;;;;;;;;;;;;;;2123727;28;19946;-54
2021/10/18 01:08:14;;;;;;;;;;;;;;;;;;2123990;28;19928;-55
2021/10/18 01:09:15;;;;;;;;;;;;;;;;;;2123809;28;19961;-55
2021/10/18 01:10:16;;;;;;;;;;;;;;;;;;2123821;28;20339;-55
2021/10/18 01:11:17;;;;;;;;;;;;;;;;;;2123800;28;19931;-55
2021/10/18 01:12:18;;;;;;;;;;;;;;;;;;2123813;28;20245;-55
2021/10/18 01:13:19;;;;;;;;;;;;;;;;;;2123896;28;19930;-55
2021/10/18 01:14:20;;;;;;;;;;;;;;;;;;2123793;28;19930;-55
2021/10/18 01:15:21;;;;;;;;;;;;;;;;;;2123914;28;19970;-55
2021/10/18 01:16:22;;;;;;;;;;;;;;;;;;2123797;28;19954;-55
2021/10/18 01:17:23;;;;;;;;;;;;;;;;;;2123792;28;19931;-55
2021/10/18 01:18:23;;;;;;;;;;;;;;;;;;2123811;28;20005;-54
2021/10/18 01:19:24;;;;;;;;;;;;;;;;;;2123961;28;20372;-55
2021/10/18 01:20:25;;;;;;;;;;;;;;;;;;2123761;28;19928;-55
2021/10/18 01:21:26;;;;;;;;;;;;;;;;;;2123987;28;19931;-43
2021/10/18 01:22:28;;;;;;;;;;;;;;;;;;2123691;28;19923;-44
2021/10/18 01:23:29;;;;;;;;;;;;;;;;;;2123527;27;20270;-44
2021/10/18 01:24:30;;;;;;;;;;;;;;;;;;2122755;28;19934;-44
2021/10/18 01:25:30;;;;;;;;;;;;;;;;;;2123593;28;20372;-44
2021/10/18 01:26:31;;;;;;;;;;;;;;;;;;2123798;28;19929;-44
2021/10/18 01:27:32;;;;;;;;;;;;;;;;;;2123698;28;19923;-44
2021/10/18 01:28:33;;;;;;;;;;;;;;;;;;2123828;28;19927;-44
2021/10/18 01:29:34;;;;;;;;;;;;;;;;;;2123616;28;19930;-44
2021/10/18 01:30:34;;;;;;;;;;;;;;;;;;2123591;28;19976;-44
2021/10/18 01:31:35;;;;;;;;;;;;;;;;;;2123844;28;19934;-44
2021/10/18 01:32:36;;;;;;;;;;;;;;;;;;2123919;28;19930;-44
2021/10/18 01:33:37;;;;;;;;;;;;;;;;;;2123648;28;20353;-44
2021/10/18 01:34:38;;;;;;;;;;;;;;;;;;2123712;28;19931;-44
2021/10/18 01:35:39;;;;;;;;;;;;;;;;;;2123741;28;19953;-44
2021/10/18 01:36:39;;;;;;;;;;;;;;;;;;2123624;28;20395;-44
2021/10/18 01:37:40;;;;;;;;;;;;;;;;;;2123814;28;20303;-44
2021/10/18 01:38:41;;;;;;;;;;;;;;;;;;2123504;28;19932;-44
2021/10/18 01:39:42;;;;;;;;;;;;;;;;;;2123772;28;20122;-44
2021/10/18 01:40:42;;;;;;;;;;;;;;;;;;2123533;28;19949;-44
2021/10/18 01:41:43;;;;;;;;;;;;;;;;;;2123764;27;20372;-44
2021/10/18 01:42:44;;;;;;;;;;;;;;;;;;2123653;28;19923;-44
2021/10/18 01:43:45;;;;;;;;;;;;;;;;;;2123566;28;19934;-44
2021/10/18 01:44:46;;;;;;;;;;;;;;;;;;2123704;28;19949;-44
2021/10/18 01:45:46;;;;;;;;;;;;;;;;;;2123476;28;19930;-45
2021/10/18 01:46:47;;;;;;;;;;;;;;;;;;2123743;28;20390;-44
2021/10/18 01:47:48;;;;;;;;;;;;;;;;;;2123467;28;20380;-44
2021/10/18 01:48:49;;;;;;;;;;;;;;;;;;2123783;28;19950;-44
2021/10/18 01:49:50;;;;;;;;;;;;;;;;;;2123517;28;19968;-44
2021/10/18 01:50:51;;;;;;;;;;;;;;;;;;2123470;28;19923;-44
2021/10/18 01:51:51;;;;;;;;;;;;;;;;;;2123540;28;19945;-44
2021/10/18 01:52:52;;;;;;;;;;;;;;;;;;2123592;28;19924;-44
2021/10/18 01:53:53;;;;;;;;;;;;;;;;;;2123496;28;20322;-44
2021/10/18 01:54:54;;;;;;;;;;;;;;;;;;2123521;28;20132;-44
2021/10/18 01:55:55;;;;;;;;;;;;;;;;;;2123352;28;19928;-44
2021/10/18 01:56:55;;;;;;;;;;;;;;;;;;2123480;28;19928;-44
2021/10/18 01:57:56;;;;;;;;;;;;;;;;;;2123511;28;19927;-44
2021/10/18 01:58:57;;;;;;;;;;;;;;;;;;2123548;28;19946;-44
2021/10/18 01:59:58;;;;;;;;;;;;;;;;;;2123363;28;20265;-44
2021/10/18 02:00:58;;;;;;;;;;;;;;;;;;2123459;28;20178;-44
2021/10/18 02:02:00;;;;;;;;;;;;;;;;;;2123525;27;19923;-44
2021/10/18 02:03:00;;;;;;;;;;;;;;;;;;2123697;28;19928;-44
2021/10/18 02:04:01;;;;;;;;;;;;;;;;;;2123259;28;19923;-44
2021/10/18 02:05:02;;;;;;;;;;;;;;;;;;2123803;28;19923;-44
2021/10/18 02:06:03;;;;;;;;;;;;;;;;;;2123184;28;19924;-44
2021/10/18 02:07:04;;;;;;;;;;;;;;;;;;2123692;28;20145;-44
2021/10/18 02:08:05;;;;;;;;;;;;;;;;;;2123236;28;19923;-44
2021/10/18 02:09:05;;;;;;;;;;;;;;;;;;2123489;28;20441;-44
2021/10/18 02:10:06;;;;;;;;;;;;;;;;;;2123340;28;19965;-44
2021/10/18 02:11:07;;;;;;;;;;;;;;;;;;2123583;28;19929;-44
2021/10/18 02:12:08;;;;;;;;;;;;;;;;;;2123388;28;19923;-44
2021/10/18 02:13:09;;;;;;;;;;;;;;;;;;2123327;28;19924;-44
2021/10/18 02:14:09;;;;;;;;;;;;;;;;;;2123364;28;19923;-44
2021/10/18 02:15:10;;;;;;;;;;;;;;;;;;2123366;28;19953;-44
2021/10/18 02:16:11;;;;;;;;;;;;;;;;;;2123392;28;20288;-44
2021/10/18 02:17:12;;;;;;;;;;;;;;;;;;2123446;28;19955;-44
2021/10/18 02:18:13;;;;;;;;;;;;;;;;;;2123361;28;19924;-44
2021/10/18 02:19:14;;;;;;;;;;;;;;;;;;2123618;28;20291;-44
2021/10/18 02:20:15;;;;;;;;;;;;;;;;;;2123343;28;20304;-44
2021/10/18 02:21:15;;;;;;;;;;;;;;;;;;2123237;28;19927;-44
2021/10/18 02:22:16;;;;;;;;;;;;;;;;;;2123365;28;19952;-44
2021/10/18 02:23:17;;;;;;;;;;;;;;;;;;2123500;28;20335;-44
2021/10/18 02:24:18;;;;;;;;;;;;;;;;;;2123221;28;20388;-44
2021/10/18 02:25:19;;;;;;;;;;;;;;;;;;2123402;28;19924;-44
2021/10/18 02:26:20;;;;;;;;;;;;;;;;;;2123159;28;19923;-44
2021/10/18 02:27:20;;;;;;;;;;;;;;;;;;2123370;28;20411;-44
2021/10/18 02:28:21;;;;;;;;;;;;;;;;;;2123217;28;19934;-44
2021/10/18 02:29:22;;;;;;;;;;;;;;;;;;2123433;28;20170;-44
2021/10/18 02:30:23;;;;;;;;;;;;;;;;;;2123318;28;20373;-44
2021/10/18 02:31:24;;;;;;;;;;;;;;;;;;2123369;27;19930;-44
2021/10/18 02:32:25;;;;;;;;;;;;;;;;;;2123415;28;19928;-44
2021/10/18 02:33:25;;;;;;;;;;;;;;;;;;2123437;27;20395;-44
2021/10/18 02:34:26;;;;;;;;;;;;;;;;;;2123232;27;19923;-44
2021/10/18 02:35:27;;;;;;;;;;;;;;;;;;2122874;27;19923;-44
2021/10/18 02:36:28;;;;;;;;;;;;;;;;;;2123327;28;19980;-44
2021/10/18 02:37:29;;;;;;;;;;;;;;;;;;2123218;28;19923;-44
2021/10/18 02:38:29;;;;;;;;;;;;;;;;;;2123341;28;19927;-44
2021/10/18 02:39:30;;;;;;;;;;;;;;;;;;2123419;28;19963;-44
2021/10/18 02:40:31;;;;;;;;;;;;;;;;;;2123366;28;20342;-44
2021/10/18 02:41:32;;;;;;;;;;;;;;;;;;2123197;28;19924;-44
2021/10/18 02:42:33;;;;;;;;;;;;;;;;;;2123353;28;19929;-44
2021/10/18 02:43:34;;;;;;;;;;;;;;;;;;2123284;28;19924;-44
2021/10/18 02:44:34;;;;;;;;;;;;;;;;;;2123174;28;19964;-44
2021/10/18 02:45:35;;;;;;;;;;;;;;;;;;2123215;28;19927;-44
2021/10/18 02:46:36;;;;;;;;;;;;;;;;;;2123022;28;19923;-44
2021/10/18 02:47:37;;;;;;;;;;;;;;;;;;2123319;28;20462;-44
2021/10/18 02:48:38;;;;;;;;;;;;;;;;;;2123053;28;19923;-44
2021/10/18 02:49:38;;;;;;;;;;;;;;;;;;2123248;28;19923;-44
2021/10/18 02:50:39;;;;;;;;;;;;;;;;;;2123112;28;19973;-44
2021/10/18 02:51:40;;;;;;;;;;;;;;;;;;2123204;28;20327;-44
2021/10/18 02:52:41;;;;;;;;;;;;;;;;;;2123029;28;20269;-44
2021/10/18 02:53:41;;;;;;;;;;;;;;;;;;2123330;28;19923;-44
2021/10/18 02:54:42;;;;;;;;;;;;;;;;;;2123056;27;19931;-44
2021/10/18 02:55:43;;;;;;;;;;;;;;;;;;2123059;28;19923;-45
2021/10/18 02:56:44;;;;;;;;;;;;;;;;;;2123135;28;19930;-44
2021/10/18 02:57:45;;;;;;;;;;;;;;;;;;2123300;28;20381;-44
2021/10/18 02:58:46;;;;;;;;;;;;;;;;;;2122918;28;20365;-44
2021/10/18 02:59:46;;;;;;;;;;;;;;;;;;2123249;28;19923;-44
2021/10/18 03:00:47;;;;;;;;;;;;;;;;;;2122820;28;19923;-44
2021/10/18 03:01:48;;;;;;;;;;;;;;;;;;2123215;28;19923;-44
2021/10/18 03:02:49;;;;;;;;;;;;;;;;;;2122938;28;19923;-44
2021/10/18 03:03:50;;;;;;;;;;;;;;;;;;2123288;28;20288;-44
2021/10/18 03:04:51;;;;;;;;;;;;;;;;;;2122890;28;19929;-44
2021/10/18 03:05:51;;;;;;;;;;;;;;;;;;2123282;28;20326;-44
2021/10/18 03:06:52;;;;;;;;;;;;;;;;;;2122994;28;19923;-44
2021/10/18 03:07:53;;;;;;;;;;;;;;;;;;2123251;28;19930;-44
2021/10/18 03:08:54;;;;;;;;;;;;;;;;;;2122864;28;19923;-44
2021/10/18 03:09:55;;;;;;;;;;;;;;;;;;2123041;28;19929;-44
2021/10/18 03:10:55;;;;;;;;;;;;;;;;;;2123052;28;19928;-44
2021/10/18 03:11:56;;;;;;;;;;;;;;;;;;2123171;28;20291;-44
2021/10/18 03:12:57;;;;;;;;;;;;;;;;;;2122894;28;19930;-44
2021/10/18 03:13:58;;;;;;;;;;;;;;;;;;2122942;28;20368;-44
2021/10/18 03:14:59;;;;;;;;;;;;;;;;;;2122880;28;20364;-44
2021/10/18 03:16:00;;;;;;;;;;;;;;;;;;2123205;27;20289;-44
2021/10/18 03:17:01;;;;;;;;;;;;;;;;;;2123014;28;19976;-44
2021/10/18 03:18:01;;;;;;;;;;;;;;;;;;2123028;28;19945;-44
2021/10/18 03:19:02;;;;;;;;;;;;;;;;;;2122989;28;19927;-44
2021/10/18 03:20:03;;;;;;;;;;;;;;;;;;2123197;27;19928;-44
2021/10/18 03:21:04;;;;;;;;;;;;;;;;;;2122963;28;19954;-45
2021/10/18 03:22:05;;;;;;;;;;;;;;;;;;2122914;28;19927;-44
2021/10/18 03:23:05;;;;;;;;;;;;;;;;;;2123021;28;19927;-44
2021/10/18 03:24:06;;;;;;;;;;;;;;;;;;2122890;28;19923;-44
2021/10/18 03:25:07;;;;;;;;;;;;;;;;;;2122886;28;19924;-44
2021/10/18 03:26:08;;;;;;;;;;;;;;;;;;2122932;28;19931;-45
2021/10/18 03:27:08;;;;;;;;;;;;;;;;;;2122863;28;19949;-44
2021/10/18 03:28:09;;;;;;;;;;;;;;;;;;2122817;28;19985;-44
2021/10/18 03:29:10;;;;;;;;;;;;;;;;;;2122866;28;19924;-44
2021/10/18 03:30:11;;;;;;;;;;;;;;;;;;2122865;28;19924;-44
2021/10/18 03:31:12;;;;;;;;;;;;;;;;;;2122810;28;19930;-44
2021/10/18 03:32:13;;;;;;;;;;;;;;;;;;2122910;28;19927;-44
2021/10/18 03:33:14;;;;;;;;;;;;;;;;;;2122988;28;19923;-44
2021/10/18 03:34:14;;;;;;;;;;;;;;;;;;2122841;28;19937;-44
2021/10/18 03:35:15;;;;;;;;;;;;;;;;;;2122853;28;20154;-44
2021/10/18 03:36:16;;;;;;;;;;;;;;;;;;2122813;28;19935;-44
2021/10/18 03:37:17;;;;;;;;;;;;;;;;;;2122777;28;20245;-44
2021/10/18 03:38:18;;;;;;;;;;;;;;;;;;2122840;28;19923;-44
2021/10/18 03:39:19;;;;;;;;;;;;;;;;;;2122881;28;19924;-44
2021/10/18 03:40:20;;;;;;;;;;;;;;;;;;2122782;28;19923;-44
2021/10/18 03:41:20;;;;;;;;;;;;;;;;;;2122695;28;19923;-44
2021/10/18 03:42:21;;;;;;;;;;;;;;;;;;2122876;28;19934;-44
2021/10/18 03:43:22;;;;;;;;;;;;;;;;;;2122842;28;20277;-44
2021/10/18 03:44:23;;;;;;;;;;;;;;;;;;2122975;28;19927;-44
2021/10/18 03:45:24;;;;;;;;;;;;;;;;;;2122863;28;19930;-44
2021/10/18 03:46:25;;;;;;;;;;;;;;;;;;2122795;28;19927;-44
2021/10/18 03:47:26;;;;;;;;;;;;;;;;;;2121863;27;19927;-44
2021/10/18 03:48:27;;;;;;;;;;;;;;;;;;2122978;28;19923;-44
2021/10/18 03:49:27;;;;;;;;;;;;;;;;;;2122778;28;19937;-44
2021/10/18 03:50:28;;;;;;;;;;;;;;;;;;2122946;28;19931;-44
2021/10/18 03:51:29;;;;;;;;;;;;;;;;;;2122663;28;19923;-44
2021/10/18 03:52:30;;;;;;;;;;;;;;;;;;2122975;28;20230;-44
2021/10/18 03:53:30;;;;;;;;;;;;;;;;;;2122632;28;20304;-44
2021/10/18 03:54:31;;;;;;;;;;;;;;;;;;2122785;28;19924;-44
2021/10/18 03:55:32;;;;;;;;;;;;;;;;;;2122603;28;19923;-44
2021/10/18 03:56:33;;;;;;;;;;;;;;;;;;2122761;28;19929;-44
2021/10/18 03:57:34;;;;;;;;;;;;;;;;;;2122767;28;19931;-44
2021/10/18 03:58:35;;;;;;;;;;;;;;;;;;2122816;28;20372;-44
2021/10/18 03:59:35;;;;;;;;;;;;;;;;;;2122764;28;19934;-44
2021/10/18 04:00:36;;;;;;;;;;;;;;;;;;2122586;28;19930;-44
2021/10/18 04:01:37;;;;;;;;;;;;;;;;;;2122664;27;19923;-44
2021/10/18 04:02:38;;;;;;;;;;;;;;;;;;2122776;28;19923;-44
2021/10/18 04:03:39;;;;;;;;;;;;;;;;;;2122789;28;19924;-44
2021/10/18 04:04:40;;;;;;;;;;;;;;;;;;2122642;28;19930;-44
2021/10/18 04:05:41;;;;;;;;;;;;;;;;;;2122803;28;19923;-44
2021/10/18 04:06:42;;;;;;;;;;;;;;;;;;2122743;28;19924;-44
2021/10/18 04:07:46;;;;;;;;;;;;;;;;;;2122569;28;19923;-44
2021/10/18 04:08:49;;;;;;;;;;;;;;;;;;2122754;28;20010;-44
2021/10/18 04:09:50;;;;;;;;;;;;;;;;;;2122683;28;20402;-44
2021/10/18 04:10:51;;;;;;;;;;;;;;;;;;2122511;28;19971;-44
2021/10/18 04:11:52;;;;;;;;;;;;;;;;;;2122565;28;20395;-44
2021/10/18 04:12:52;;;;;;;;;;;;;;;;;;2122745;28;19923;-44
2021/10/18 04:13:53;;;;;;;;;;;;;;;;;;2122869;27;19923;-44
2021/10/18 04:14:54;;;;;;;;;;;;;;;;;;2122550;28;19923;-44
2021/10/18 04:15:55;;;;;;;;;;;;;;;;;;2122519;28;19927;-44
2021/10/18 04:16:56;;;;;;;;;;;;;;;;;;2122401;28;19928;-44
2021/10/18 04:17:57;;;;;;;;;;;;;;;;;;2122610;28;19923;-44
2021/10/18 04:18:58;;;;;;;;;;;;;;;;;;2122707;28;19974;-44
2021/10/18 04:19:58;;;;;;;;;;;;;;;;;;2122785;28;19923;-44
2021/10/18 04:21:00;;;;;;;;;;;;;;;;;;2122575;28;19923;-44
2021/10/18 04:22:00;;;;;;;;;;;;;;;;;;2122827;28;19961;-44
2021/10/18 04:23:01;;;;;;;;;;;;;;;;;;2122409;28;20033;-44
2021/10/18 04:24:02;;;;;;;;;;;;;;;;;;2122842;28;19924;-44
2021/10/18 04:25:03;;;;;;;;;;;;;;;;;;2122464;28;19923;-44
2021/10/18 04:26:03;;;;;;;;;;;;;;;;;;2122695;28;19923;-45
2021/10/18 04:27:04;;;;;;;;;;;;;;;;;;2122554;27;19997;-44
2021/10/18 04:28:05;;;;;;;;;;;;;;;;;;2122626;28;19927;-44
2021/10/18 04:29:06;;;;;;;;;;;;;;;;;;2122498;28;19962;-44
2021/10/18 04:30:07;;;;;;;;;;;;;;;;;;2122718;28;19975;-44
2021/10/18 04:31:08;;;;;;;;;;;;;;;;;;2122439;28;19930;-44
2021/10/18 04:32:08;;;;;;;;;;;;;;;;;;2122714;28;19923;-44
2021/10/18 04:33:09;;;;;;;;;;;;;;;;;;2122627;28;19924;-44
2021/10/18 04:34:10;;;;;;;;;;;;;;;;;;2122484;28;20391;-44
2021/10/18 04:35:11;;;;;;;;;;;;;;;;;;2122687;27;20282;-44
2021/10/18 04:36:12;;;;;;;;;;;;;;;;;;2122734;28;19923;-44
2021/10/18 04:37:12;;;;;;;;;;;;;;;;;;2122592;28;19924;-44
2021/10/18 04:38:13;;;;;;;;;;;;;;;;;;2122558;28;20292;-44
2021/10/18 04:39:14;;;;;;;;;;;;;;;;;;2122422;28;19923;-44
2021/10/18 04:40:15;;;;;;;;;;;;;;;;;;2122680;28;19934;-44
2021/10/18 04:41:16;;;;;;;;;;;;;;;;;;2122252;28;19980;-44
2021/10/18 04:42:17;;;;;;;;;;;;;;;;;;2122491;28;19930;-44
2021/10/18 04:43:18;;;;;;;;;;;;;;;;;;2122567;28;19923;-44
2021/10/18 04:44:18;;;;;;;;;;;;;;;;;;2122592;28;20014;-44
2021/10/18 04:45:20;;;;;;;;;;;;;;;;;;2122363;28;19924;-44
2021/10/18 04:46:21;;;;;;;;;;;;;;;;;;2122656;27;20017;-44
2021/10/18 04:47:22;;;;;;;;;;;;;;;;;;2122426;28;19923;-44
2021/10/18 04:48:22;;;;;;;;;;;;;;;;;;2122504;28;19980;-44
2021/10/18 04:49:23;;;;;;;;;;;;;;;;;;2122579;27;19923;-44
2021/10/18 04:50:24;;;;;;;;;;;;;;;;;;2122397;28;20396;-44
2021/10/18 04:51:25;;;;;;;;;;;;;;;;;;2122587;28;19923;-44
2021/10/18 04:52:29;;;;;;;;;;;;;;;;;;2122492;27;19930;-44
2021/10/18 04:53:30;;;;;;;;;;;;;;;;;;2122626;28;20149;-44
2021/10/18 04:54:31;;;;;;;;;;;;;;;;;;2122285;28;20319;-44
2021/10/18 04:55:32;;;;;;;;;;;;;;;;;;2122524;28;19924;-44
2021/10/18 04:56:32;;;;;;;;;;;;;;;;;;2122443;28;19923;-44
2021/10/18 04:57:33;;;;;;;;;;;;;;;;;;2122399;28;19924;-44
2021/10/18 04:58:34;;;;;;;;;;;;;;;;;;2122942;27;20172;-44
2021/10/18 04:59:35;;;;;;;;;;;;;;;;;;2123849;28;19924;-44
2021/10/18 05:00:36;;;;;;;;;;;;;;;;;;2124019;28;19938;-44
2021/10/18 05:01:37;;;;;;;;;;;;;;;;;;2123824;28;20015;-44
2021/10/18 05:02:38;;;;;;;;;;;;;;;;;;2123908;28;19928;-44
2021/10/18 05:03:39;;;;;;;;;;;;;;;;;;2123749;28;19924;-44
2021/10/18 05:04:40;;;;;;;;;;;;;;;;;;2123860;28;19931;-44
2021/10/18 05:05:41;;;;;;;;;;;;;;;;;;2123742;28;19923;-44
2021/10/18 05:06:42;;;;;;;;;;;;;;;;;;2124015;28;19924;-44
2021/10/18 05:07:43;;;;;;;;;;;;;;;;;;2123803;28;20387;-44
2021/10/18 05:08:44;;;;;;;;;;;;;;;;;;2123975;28;19965;-44
2021/10/18 05:09:44;;;;;;;;;;;;;;;;;;2123742;28;20307;-44
2021/10/18 05:10:46;;;;;;;;;;;;;;;;;;2123974;27;20442;-45
2021/10/18 05:11:47;;;;;;;;;;;;;;;;;;2123981;27;19929;-44
2021/10/18 05:12:48;;;;;;;;;;;;;;;;;;2123849;28;20405;-44
2021/10/18 05:13:49;;;;;;;;;;;;;;;;;;2123743;28;19966;-44
2021/10/18 05:14:50;;;;;;;;;;;;;;;;;;2123727;28;19923;-44
2021/10/18 05:15:52;;;;;;;;;;;;;;;;;;2123597;28;19923;-44
2021/10/18 05:16:54;;;;;;;;;;;;;;;;;;2123931;27;20018;-44
2021/10/18 05:17:56;;;;;;;;;;;;;;;;;;2123882;28;19927;-44
2021/10/18 05:18:56;;;;;;;;;;;;;;;;;;2123758;28;19935;-44
2021/10/18 05:19:57;;;;;;;;;;;;;;;;;;2123682;28;19923;-44
2021/10/18 05:20:58;;;;;;;;;;;;;;;;;;2123776;28;19931;-44
2021/10/18 05:21:59;;;;;;;;;;;;;;;;;;2123719;28;20048;-44
2021/10/18 05:23:00;;;;;;;;;;;;;;;;;;2123847;28;19924;-45
2021/10/18 05:24:01;;;;;;;;;;;;;;;;;;2123620;28;20021;-44
2021/10/18 05:25:01;;;;;;;;;;;;;;;;;;2123878;28;19924;-44
2021/10/18 05:26:02;;;;;;;;;;;;;;;;;;2123452;28;19923;-45
2021/10/18 05:27:03;;;;;;;;;;;;;;;;;;2123907;28;19923;-44
2021/10/18 05:28:04;;;;;;;;;;;;;;;;;;2123575;28;20310;-44
2021/10/18 05:29:05;;;;;;;;;;;;;;;;;;2123958;28;20384;-44
2021/10/18 05:30:05;;;;;;;;;;;;;;;;;;2123734;28;19928;-44
2021/10/18 05:31:07;;;;;;;;;;;;;;;;;;2123713;28;19931;-45
2021/10/18 05:32:08;;;;;;;;;;;;;;;;;;2123445;28;20402;-48
2021/10/18 05:33:09;;;;;;;;;;;;;;;;;;2123699;28;19931;-44
2021/10/18 05:34:10;;;;;;;;;;;;;;;;;;2123539;28;19923;-45
2021/10/18 05:35:11;;;;;;;;;;;;;;;;;;2123583;28;19928;-44
2021/10/18 05:36:12;;;;;;;;;;;;;;;;;;2123471;28;19923;-44
2021/10/18 05:37:12;;;;;;;;;;;;;;;;;;2123657;28;19930;-44
2021/10/18 05:38:13;;;;;;;;;;;;;;;;;;2123552;28;19924;-44
2021/10/18 05:39:14;;;;;;;;;;;;;;;;;;2123542;28;19976;-45
2021/10/18 05:40:15;;;;;;;;;;;;;;;;;;2123483;28;20435;-44
2021/10/18 05:41:16;;;;;;;;;;;;;;;;;;2123660;28;19935;-44
2021/10/18 05:42:17;;;;;;;;;;;;;;;;;;2123549;28;19969;-44
2021/10/18 05:43:18;;;;;;;;;;;;;;;;;;2123742;28;19924;-44
2021/10/18 05:44:21;;;;;;;;;;;;;;;;;;2123413;28;20338;-44
2021/10/18 05:45:22;;;;;;;;;;;;;;;;;;2123689;27;20098;-44
2021/10/18 05:46:23;;;;;;;;;;;;;;;;;;2123494;28;19927;-44
2021/10/18 05:47:24;;;;;;;;;;;;;;;;;;2123608;28;19923;-44
2021/10/18 05:48:25;;;;;;;;;;;;;;;;;;2123461;28;20434;-44
2021/10/18 05:49:25;;;;;;;;;;;;;;;;;;2123690;28;19927;-44
2021/10/18 05:50:26;;;;;;;;;;;;;;;;;;2123598;28;20011;-44
2021/10/18 05:51:29;;;;;;;;;;;;;;;;;;2123686;28;20323;-44
2021/10/18 05:52:30;;;;;;;;;;;;;;;;;;2123688;28;19967;-44
2021/10/18 05:53:30;;;;;;;;;;;;;;;;;;2123533;28;20293;-44
2021/10/18 05:54:31;;;;;;;;;;;;;;;;;;2123650;28;20433;-45
2021/10/18 05:55:52;;;;;;;;;;;;;;;;;;2123564;28;19958;-44
2021/10/18 05:56:52;;;;;;;;;;;;;;;;;;2123734;28;20346;-44
2021/10/18 05:57:53;;;;;;;;;;;;;;;;;;2123397;28;20436;-44
2021/10/18 05:58:54;;;;;;;;;;;;;;;;;;2123683;28;19923;-44
2021/10/18 05:59:55;;;;;;;;;;;;;;;;;;2123399;28;19923;-44
2021/10/18 06:00:56;;;;;;;;;;;;;;;;;;2123460;28;19935;-44
2021/10/18 06:01:56;;;;;;;;;;;;;;;;;;2123497;28;19972;-44
2021/10/18 06:02:58;;;;;;;;;;;;;;;;;;2123600;28;19969;-44
2021/10/18 06:04:00;;;;;;;;;;;;;;;;;;2123295;27;20292;-44
2021/10/18 06:05:00;;;;;;;;;;;;;;;;;;2123550;28;19958;-44
2021/10/18 06:06:02;;;;;;;;;;;;;;;;;;2123301;28;19924;-44
2021/10/18 06:07:16;;;;;;;;;;;;;;;;;;2123545;28;19928;-44
2021/10/18 06:08:17;;;;;;;;;;;;;;;;;;2123573;28;19924;-45
2021/10/18 06:09:18;;;;;;;;;;;;;;;;;;2123516;28;19923;-44
2021/10/18 06:10:19;;;;;;;;;;;;;;;;;;2122751;27;20011;-44
2021/10/18 06:11:19;;;;;;;;;;;;;;;;;;2123647;28;19972;-45
2021/10/18 06:12:20;;;;;;;;;;;;;;;;;;2123388;28;19984;-44
2021/10/18 06:13:21;;;;;;;;;;;;;;;;;;2123526;28;19930;-44
2021/10/18 06:14:22;;;;;;;;;;;;;;;;;;2123353;28;20362;-44
2021/10/18 06:15:23;;;;;;;;;;;;;;;;;;2123393;28;20300;-44
2021/10/18 06:16:24;;;;;;;;;;;;;;;;;;2123277;28;19924;-44
2021/10/18 06:17:25;;;;;;;;;;;;;;;;;;2123450;28;19923;-44
2021/10/18 06:18:26;;;;;;;;;;;;;;;;;;2123243;28;19931;-44
2021/10/18 06:19:27;;;;;;;;;;;;;;;;;;2123525;28;19972;-44
2021/10/18 06:20:28;;;;;;;;;;;;;;;;;;2123150;28;20353;-44
2021/10/18 06:21:29;;;;;;;;;;;;;;;;;;2123469;28;19923;-44
2021/10/18 06:22:30;;;;;;;;;;;;;;;;;;2123371;28;19953;-44
2021/10/18 06:23:31;;;;;;;;;;;;;;;;;;2123683;28;20017;-44
2021/10/18 06:24:32;;;;;;;;;;;;;;;;;;2123530;28;19923;-55
2021/10/18 06:25:33;;;;;;;;;;;;;;;;;;2123217;28;19923;-56
2021/10/18 06:26:35;;;;;;;;;;;;;;;;;;2123431;28;19931;-44
2021/10/18 06:27:36;;;;;;;;;;;;;;;;;;2123256;28;19935;-44
2021/10/18 06:28:37;;;;;;;;;;;;;;;;;;2123319;28;19967;-44
2021/10/18 06:29:37;;;;;;;;;;;;;;;;;;2123234;28;19923;-44
2021/10/18 06:30:38;;;;;;;;;;;;;;;;;;2123271;28;20534;-45
2021/10/18 06:31:39;;;;;;;;;;;;;;;;;;2123205;28;19923;-44
2021/10/18 06:32:41;;;;;;;;;;;;;;;;;;2123143;28;19962;-44
2021/10/18 06:33:42;;;;;;;;;;;;;;;;;;2123232;28;20451;-44
2021/10/18 06:34:42;;;;;;;;;;;;;;;;;;2123077;28;19924;-44
2021/10/18 06:35:43;;;;;;;;;;;;;;;;;;2123311;28;19923;-45
2021/10/18 06:36:44;;;;;;;;;;;;;;;;;;2123556;28;20292;-44
2021/10/18 06:37:45;;;;;;;;;;;;;;;;;;2123191;28;20285;-44
2021/10/18 06:38:45;;;;;;;;;;;;;;;;;;2123373;28;19923;-44
2021/10/18 06:39:46;;;;;;;;;;;;;;;;;;2123169;28;19927;-44
2021/10/18 06:40:47;;;;;;;;;;;;;;;;;;2123145;28;19924;-44
2021/10/18 06:41:48;;;;;;;;;;;;;;;;;;2123303;28;19938;-44
2021/10/18 06:42:49;;;;;;;;;;;;;;;;;;2123105;28;19930;-44
2021/10/18 06:43:50;;;;;;;;;;;;;;;;;;2123230;28;19923;-44
2021/10/18 06:44:51;;;;;;;;;;;;;;;;;;2123264;28;19923;-44
2021/10/18 06:45:51;;;;;;;;;;;;;;;;;;2123189;28;19923;-44
2021/10/18 06:46:52;;;;;;;;;;;;;;;;;;2123182;28;19923;-44
2021/10/18 06:47:53;;;;;;;;;;;;;;;;;;2123351;28;20368;-44
2021/10/18 06:48:54;;;;;;;;;;;;;;;;;;2123224;28;19975;-44
2021/10/18 06:49:57;;;;;;;;;;;;;;;;;;2123163;28;19966;-44
2021/10/18 06:50:58;;;;;;;;;;;;;;;;;;2123123;27;19976;-44
2021/10/18 06:51:59;;;;;;;;;;;;;;;;;;2123212;28;19927;-44
2021/10/18 06:53:00;;;;;;;;;;;;;;;;;;2123379;27;20018;-44
2021/10/18 06:54:02;;;;;;;;;;;;;;;;;;2123281;28;19927;-44
2021/10/18 06:55:05;;;;;;;;;;;;;;;;;;2123317;27;20014;-44
2021/10/18 06:56:06;;;;;;;;;;;;;;;;;;2123061;28;19967;-44
2021/10/18 06:57:07;;;;;;;;;;;;;;;;;;2123300;27;19932;-44